»·PEaware :: N6423L KSNA-KCRQ

N6423L :: KSNA-KCRQ

FLIGHT INFORMATION

Flight Status: Arrived
Operator: Privately registered:
United States
More flights under this callsign
Pilot: Alexander M. (19327)
Aircraft: CESSNA 550 CITATION 2/S2/BRAVO
(C550)
More flights by this aircraft type
Origin: KSNA John Wayne-Orange Co
United States
Destination: KCRQ McClellan-Palomar
United States
More flights between these airports :: More routes between these airports
Route: +V25 PACIF V208 OCN
File this flight plan on PilotEdge
Remarks: Pilotedge I-02 Rating...on stream! twitch.tv / allaboutflight
Altitude:
(Current/Filed)
7,000ft
Speed:
(Current/Filed)
180kts
Departed: 26-Oct-18 01:25 PM
Arrived: 26-Oct-18 03:03 PM
Distance/Time
Traveled:
44nm/1:38
Distance/Time
To Go:
Arrived

Flight Plot

Page will automatically refresh every two minutes.


Map Options




Map Legend


Flown Route
Filed Route
Departure Airport
Arrival Airport
Navaid (VOR, NDB)
Fix

Horizontal Profiles

Position Reports

Time Latitude Longitude Heading Altitude Ground
Speed
26-Oct-18 13:16 33.672267 -117.866685 211 61ft 0kts
26-Oct-18 13:17 33.672267 -117.866685 211 61ft 0kts
26-Oct-18 13:18 33.672267 -117.866685 211 61ft 0kts
26-Oct-18 13:19 33.672267 -117.866685 211 61ft 0kts
26-Oct-18 13:20 33.672267 -117.866685 211 61ft 0kts
26-Oct-18 13:21 33.672290 -117.866971 301 61ft 6kts
26-Oct-18 13:22 33.674055 -117.866517 27 61ft 19kts
26-Oct-18 13:23 33.679529 -117.863036 24 61ft 18kts
26-Oct-18 13:24 33.680718 -117.862293 216 61ft 9kts
26-Oct-18 13:25 33.681074 -117.864037 297 61ft 15kts
26-Oct-18 13:26 33.681322 -117.865221 225 61ft 2kts
26-Oct-18 13:27 33.661298 -117.878208 209 1379ft 175kts
26-Oct-18 13:28 33.604710 -117.888013 183 1753ft 185kts
26-Oct-18 13:29 33.563982 -117.889711 183 2265ft 121kts
26-Oct-18 13:30 33.527560 -117.891126 183 2563ft 161kts
26-Oct-18 13:31 33.476691 -117.893579 183 3492ft 201kts
26-Oct-18 13:32 33.419127 -117.889339 163 4643ft 216kts
26-Oct-18 13:33 33.372394 -117.835334 115 5063ft 261kts
26-Oct-18 13:34 33.375722 -117.774258 41 5064ft 152kts
26-Oct-18 13:35 33.404963 -117.775596 282 4847ft 113kts
26-Oct-18 13:36 33.386464 -117.815760 236 3566ft 152kts
26-Oct-18 13:37 33.404834 -117.842973 8 3698ft 143kts
26-Oct-18 13:38 33.438482 -117.832868 12 3844ft 145kts
26-Oct-18 13:39 33.493115 -117.815889 12 4075ft 207kts
26-Oct-18 13:40 33.541848 -117.801151 12 4072ft 229kts
26-Oct-18 13:41 33.601889 -117.782671 12 4065ft 154kts
26-Oct-18 13:42 33.636873 -117.771616 4 4033ft 120kts
26-Oct-18 13:43 33.660816 -117.785186 318 3541ft 134kts
26-Oct-18 13:44 33.691809 -117.813704 317 2492ft 96kts
26-Oct-18 13:45 33.706121 -117.832457 298 1607ft 92kts
26-Oct-18 13:46 33.696560 -117.855507 209 501ft 88kts
26-Oct-18 13:47 33.676550 -117.868318 207 61ft 59kts
26-Oct-18 13:48 33.672315 -117.872003 303 61ft 10kts
26-Oct-18 13:49 33.672919 -117.872093 32 61ft 12kts
26-Oct-18 13:50 33.676451 -117.870703 91 61ft 1kts
26-Oct-18 13:51 33.676441 -117.870668 115 61ft 0kts
26-Oct-18 14:21 33.676594 -117.870642 209 61ft 0kts
26-Oct-18 14:22 33.676594 -117.870642 209 61ft 0kts
26-Oct-18 14:23 33.676594 -117.870642 209 61ft 0kts
26-Oct-18 14:24 33.676594 -117.870642 209 61ft 0kts
26-Oct-18 14:25 33.676594 -117.870642 209 61ft 0kts
26-Oct-18 14:26 33.676594 -117.870642 209 61ft 0kts
26-Oct-18 14:27 33.676594 -117.870642 209 61ft 0kts
26-Oct-18 14:28 33.676331 -117.870633 138 61ft 10kts
26-Oct-18 14:29 33.676928 -117.869555 24 61ft 4kts
26-Oct-18 14:30 33.678332 -117.868658 27 61ft 20kts
26-Oct-18 14:31 33.679755 -117.867905 14 61ft 0kts
26-Oct-18 14:32 33.681028 -117.867126 28 61ft 17kts
26-Oct-18 14:33 33.681931 -117.866029 105 61ft 0kts
26-Oct-18 14:34 33.675667 -117.868898 207 128ft 139kts
26-Oct-18 14:35 33.642639 -117.881672 186 2325ft 170kts
26-Oct-18 14:36 33.599930 -117.884013 153 4306ft 190kts
26-Oct-18 14:37 33.557709 -117.841331 144 5541ft 226kts
26-Oct-18 14:38 33.503683 -117.814275 161 6623ft 222kts
26-Oct-18 14:39 33.442221 -117.794305 164 6779ft 269kts
26-Oct-18 14:40 33.369273 -117.772652 164 6894ft 252kts
26-Oct-18 14:41 33.308285 -117.754721 164 6898ft 215kts
26-Oct-18 14:42 33.271170 -117.710573 99 6600ft 201kts
26-Oct-18 14:43 33.269764 -117.648380 92 6050ft 189kts
26-Oct-18 14:44 33.263727 -117.589439 96 5469ft 182kts
26-Oct-18 14:45 33.243855 -117.536796 132 4368ft 189kts
26-Oct-18 14:46 33.209672 -117.495758 130 3374ft 185kts
26-Oct-18 14:47 33.172488 -117.449800 132 4650ft 240kts
26-Oct-18 14:48 33.133694 -117.402105 131 5037ft 182kts
26-Oct-18 14:49 33.103340 -117.365760 133 4788ft 156kts
26-Oct-18 14:50 33.086784 -117.327126 100 4848ft 167kts
26-Oct-18 14:51 33.077426 -117.276651 101 5013ft 172kts
26-Oct-18 14:52 33.076554 -117.224923 76 5112ft 173kts
26-Oct-18 14:53 33.085815 -117.171172 77 5071ft 180kts
26-Oct-18 14:54 33.095557 -117.113799 76 4981ft 197kts
26-Oct-18 14:55 33.107507 -117.052191 74 5048ft 198kts
26-Oct-18 14:56 33.121667 -116.990347 72 4969ft 202kts
26-Oct-18 14:57 33.154995 -116.970043 331 4210ft 181kts
26-Oct-18 14:58 33.168164 -117.020330 268 3428ft 157kts
26-Oct-18 14:59 33.163054 -117.063341 265 3299ft 131kts
26-Oct-18 15:00 33.153625 -117.106044 266 2446ft 141kts
26-Oct-18 15:01 33.151619 -117.148439 267 1745ft 135kts
26-Oct-18 15:02 33.141367 -117.194399 262 1765ft 147kts
26-Oct-18 15:03 33.136057 -117.229428 262 1283ft 109kts
26-Oct-18 15:04 33.130948 -117.263047 262 566ft 109kts
26-Oct-18 15:05 33.127367 -117.285634 260 305ft 24kts
26-Oct-18 15:06 33.126387 -117.287517 115 305ft 2kts
26-Oct-18 15:07 33.126804 -117.283972 79 305ft 12kts
26-Oct-18 15:08 33.126421 -117.282943 51 305ft 0kts
26-Oct-18 15:09 33.126421 -117.282943 51 305ft 0kts
26-Oct-18 15:10 33.126421 -117.282943 51 305ft 0kts

Navigation Log

Ident Type
1. KSNA Airport
2. PACIF Fix
3. HUBRD Fix
4. OCN Navaid
5. KCRQ Airport